Time;durP1;ratioP1;P1;durP2;ratioP2;P2;SDS_P1;SDS_P2;PMS_P1;PMS_P2;Temp;Humidity;BMP_temperature;BMP_pressure;BME280_temperature;BME280_humidity;BME280_pressure;Samples;Min_cycle;Max_cycle;Signal;HPM_P1;HPM_P2
2021/08/06 00:00:36;;;;;;;12.65;11.48;;;;;;;;;;5106961;27;20048;-68
2021/08/06 00:03:02;;;;;;;12.55;11.32;;;;;;;;;;5095668;28;20050;-68
2021/08/06 00:05:29;;;;;;;12.45;11.32;;;;;;;;;;5111531;27;20067;-68
2021/08/06 00:07:55;;;;;;;12.57;11.38;;;;;;;;;;5113909;27;20451;-68
2021/08/06 00:10:21;;;;;;;12.18;11.07;;;;;;;;;;5094498;27;20064;-68
2021/08/06 00:12:47;;;;;;;13.25;12.07;;;;;;;;;;5108748;27;20042;-68
2021/08/06 00:15:13;;;;;;;13.20;12.10;;;;;;;;;;5116127;27;20040;-68
2021/08/06 00:17:39;;;;;;;12.45;11.35;;;;;;;;;;5108049;27;20050;-68
2021/08/06 00:20:07;;;;;;;13.23;11.88;;;;;;;;;;5111982;27;20087;-67
2021/08/06 00:22:33;;;;;;;13.18;11.98;;;;;;;;;;5100053;27;20035;-67
2021/08/06 00:24:59;;;;;;;13.40;12.32;;;;;;;;;;5118696;27;20043;-67
2021/08/06 00:27:26;;;;;;;14.48;13.07;;;;;;;;;;5105338;27;20035;-68
2021/08/06 00:29:52;;;;;;;12.77;11.68;;;;;;;;;;5110964;27;20031;-68
2021/08/06 00:32:19;;;;;;;13.70;12.52;;;;;;;;;;5108474;27;20047;-68
2021/08/06 00:34:45;;;;;;;13.20;11.98;;;;;;;;;;5113798;27;20044;-68
2021/08/06 00:37:11;;;;;;;14.25;12.95;;;;;;;;;;5107452;27;20414;-68
2021/08/06 00:39:37;;;;;;;12.25;11.25;;;;;;;;;;5096726;28;20043;-68
2021/08/06 00:42:03;;;;;;;15.13;12.30;;;;;;;;;;5109226;27;20074;-68
2021/08/06 00:44:30;;;;;;;14.10;12.90;;;;;;;;;;5111576;27;20040;-68
2021/08/06 00:46:56;;;;;;;13.93;12.55;;;;;;;;;;5113812;27;20088;-68
2021/08/06 00:49:23;;;;;;;14.77;13.40;;;;;;;;;;5109461;27;20032;-68
2021/08/06 00:51:49;;;;;;;14.30;13.10;;;;;;;;;;5116897;27;20035;-68
2021/08/06 00:54:17;;;;;;;15.85;14.40;;;;;;;;;;5104783;27;20046;-68
2021/08/06 00:56:46;;;;;;;14.82;13.52;;;;;;;;;;5115508;27;20032;-68
2021/08/06 00:59:12;;;;;;;14.63;13.32;;;;;;;;;;5109889;27;20482;-68
2021/08/06 01:01:39;;;;;;;14.73;13.50;;;;;;;;;;5109659;28;20052;-68
2021/08/06 01:04:26;;;;;;;15.20;13.90;;;;;;;;;;5104742;28;20118;-68
2021/08/06 01:06:59;;;;;;;15.60;14.02;;;;;;;;;;5113810;28;20403;-68
2021/08/06 01:09:37;;;;;;;15.57;14.27;;;;;;;;;;5109652;28;20032;-68
2021/08/06 01:12:09;;;;;;;15.70;14.27;;;;;;;;;;5111199;28;20075;-68
2021/08/06 01:14:37;;;;;;;16.25;14.75;;;;;;;;;;5100409;28;20042;-67
2021/08/06 01:17:04;;;;;;;14.43;13.15;;;;;;;;;;5111740;28;20047;-67
2021/08/06 01:19:42;;;;;;;15.50;14.13;;;;;;;;;;5114605;28;20043;-67
2021/08/06 01:22:16;;;;;;;14.73;13.35;;;;;;;;;;5115779;28;20155;-67
2021/08/06 01:24:48;;;;;;;15.50;14.20;;;;;;;;;;5098377;28;20050;-67
2021/08/06 01:27:15;;;;;;;15.32;13.82;;;;;;;;;;5111585;28;20039;-67
2021/08/06 01:29:41;;;;;;;15.40;14.10;;;;;;;;;;5109509;28;20050;-67
2021/08/06 01:32:08;;;;;;;15.35;13.95;;;;;;;;;;5116369;28;20042;-67
2021/08/06 01:34:34;;;;;;;16.15;14.65;;;;;;;;;;5099401;28;20039;-67
2021/08/06 01:37:00;;;;;;;14.68;13.40;;;;;;;;;;5111210;28;20764;-67
2021/08/06 01:39:26;;;;;;;15.13;13.68;;;;;;;;;;5110015;28;20130;-68
2021/08/06 01:42:01;;;;;;;15.95;14.35;;;;;;;;;;5114581;28;20067;-68
2021/08/06 01:44:28;;;;;;;15.95;14.55;;;;;;;;;;5102635;28;20062;-68
2021/08/06 01:46:58;;;;;;;14.20;12.80;;;;;;;;;;5116417;28;20039;-68
2021/08/06 01:49:31;;;;;;;15.57;14.10;;;;;;;;;;5116096;28;20051;-68
2021/08/06 01:52:03;;;;;;;15.05;13.68;;;;;;;;;;5109329;28;20077;-68
2021/08/06 01:54:31;;;;;;;15.82;14.27;;;;;;;;;;5110433;28;20035;-68
2021/08/06 01:56:58;;;;;;;14.90;13.57;;;;;;;;;;5105173;28;20459;-68
2021/08/06 01:59:25;;;;;;;14.85;13.45;;;;;;;;;;5115405;27;20031;-68
2021/08/06 02:01:52;;;;;;;15.85;14.38;;;;;;;;;;5109983;27;20063;-68
2021/08/06 02:04:18;;;;;;;15.65;14.35;;;;;;;;;;5114346;27;20040;-68
2021/08/06 02:06:44;;;;;;;15.13;13.82;;;;;;;;;;5116292;27;20048;-68
2021/08/06 02:09:15;;;;;;;15.15;13.80;;;;;;;;;;5115092;27;20108;-68
2021/08/06 02:11:41;;;;;;;15.40;14.00;;;;;;;;;;5108145;27;20440;-68
2021/08/06 02:14:07;;;;;;;15.25;13.75;;;;;;;;;;5113599;27;20451;-68
2021/08/06 02:16:34;;;;;;;14.10;12.90;;;;;;;;;;5094857;28;20051;-68
2021/08/06 02:19:01;;;;;;;15.77;14.38;;;;;;;;;;5116231;27;20035;-68
2021/08/06 02:21:30;;;;;;;15.10;13.77;;;;;;;;;;5111275;27;20419;-68
2021/08/06 02:23:59;;;;;;;15.20;13.80;;;;;;;;;;5115267;27;20039;-68
2021/08/06 02:26:25;;;;;;;13.88;12.73;;;;;;;;;;5114349;27;20515;-68
2021/08/06 02:28:52;;;;;;;15.32;13.93;;;;;;;;;;5115987;27;20039;-68
2021/08/06 02:31:20;;;;;;;14.35;12.90;;;;;;;;;;5104902;27;20506;-68
2021/08/06 02:33:47;;;;;;;15.45;13.98;;;;;;;;;;5113359;27;20032;-68
2021/08/06 02:36:13;;;;;;;14.68;13.38;;;;;;;;;;5119651;27;20035;-67
2021/08/06 02:38:41;;;;;;;14.90;13.50;;;;;;;;;;5109063;27;20071;-67
2021/08/06 02:41:07;;;;;;;15.55;14.05;;;;;;;;;;5115889;27;20288;-67
2021/08/06 02:43:33;;;;;;;15.07;13.77;;;;;;;;;;5110012;27;20047;-68
2021/08/06 02:45:59;;;;;;;15.27;14.07;;;;;;;;;;5119720;27;20485;-68
2021/08/06 02:48:25;;;;;;;15.20;13.80;;;;;;;;;;5107670;27;20101;-68
2021/08/06 02:50:51;;;;;;;14.65;13.30;;;;;;;;;;5097903;28;20130;-68
2021/08/06 02:53:17;;;;;;;15.57;14.18;;;;;;;;;;5114864;27;20088;-68
2021/08/06 02:55:44;;;;;;;13.93;12.73;;;;;;;;;;5115355;27;20039;-68
2021/08/06 02:58:10;;;;;;;15.65;14.05;;;;;;;;;;5106924;27;20237;-68
2021/08/06 03:00:36;;;;;;;14.98;13.48;;;;;;;;;;5121720;27;20543;-68
2021/08/06 03:03:02;;;;;;;15.70;14.32;;;;;;;;;;5112789;27;20054;-68
2021/08/06 03:05:28;;;;;;;15.40;13.77;;;;;;;;;;5115274;27;20046;-68
2021/08/06 03:07:54;;;;;;;15.75;14.32;;;;;;;;;;5110400;27;20043;-68
2021/08/06 03:10:21;;;;;;;15.05;13.65;;;;;;;;;;5119130;27;20036;-68
2021/08/06 03:12:48;;;;;;;15.68;14.15;;;;;;;;;;5109429;27;20035;-68
2021/08/06 03:15:15;;;;;;;15.98;14.40;;;;;;;;;;5110712;27;20051;-68
2021/08/06 03:17:42;;;;;;;14.75;13.45;;;;;;;;;;5119850;27;20042;-68
2021/08/06 03:20:09;;;;;;;14.70;13.43;;;;;;;;;;5109374;27;20067;-68
2021/08/06 03:22:36;;;;;;;15.73;14.30;;;;;;;;;;5114638;27;20035;-68
2021/08/06 03:25:02;;;;;;;14.88;13.45;;;;;;;;;;5105313;27;20043;-68
2021/08/06 03:27:28;;;;;;;14.35;12.98;;;;;;;;;;5118757;27;20031;-68
2021/08/06 03:29:54;;;;;;;14.80;13.40;;;;;;;;;;5105786;27;20048;-68
2021/08/06 03:32:21;;;;;;;15.02;13.70;;;;;;;;;;5110415;27;20133;-68
2021/08/06 03:34:47;;;;;;;15.38;13.88;;;;;;;;;;5110937;27;20130;-68
2021/08/06 03:37:13;;;;;;;15.52;14.10;;;;;;;;;;5119484;27;20057;-68
2021/08/06 03:39:39;;;;;;;16.58;14.88;;;;;;;;;;5101582;27;20039;-68
2021/08/06 03:42:07;;;;;;;16.45;14.85;;;;;;;;;;5110787;27;20541;-68
2021/08/06 03:44:33;;;;;;;16.52;14.85;;;;;;;;;;5093791;28;20062;-68
2021/08/06 03:46:59;;;;;;;15.80;14.35;;;;;;;;;;5117002;27;20077;-68
2021/08/06 03:49:25;;;;;;;16.23;14.77;;;;;;;;;;5104998;27;20039;-68
2021/08/06 03:51:51;;;;;;;15.45;14.05;;;;;;;;;;5116131;27;20042;-68
2021/08/06 03:54:17;;;;;;;15.50;14.00;;;;;;;;;;5110128;27;20098;-68
2021/08/06 03:56:43;;;;;;;15.35;14.00;;;;;;;;;;5112977;27;20048;-68
2021/08/06 03:59:10;;;;;;;15.13;13.73;;;;;;;;;;5107074;27;20039;-68
2021/08/06 04:01:36;;;;;;;15.60;14.20;;;;;;;;;;5107167;27;20059;-68
2021/08/06 04:04:02;;;;;;;15.68;14.10;;;;;;;;;;5121423;27;20039;-68
2021/08/06 04:06:28;;;;;;;15.57;13.95;;;;;;;;;;5109024;27;20111;-68
2021/08/06 04:08:55;;;;;;;15.02;13.65;;;;;;;;;;5112053;27;20039;-68
2021/08/06 04:11:21;;;;;;;16.25;14.75;;;;;;;;;;5110551;27;20101;-68
2021/08/06 04:13:47;;;;;;;15.52;14.23;;;;;;;;;;5116928;27;20107;-68
2021/08/06 04:16:14;;;;;;;15.73;14.23;;;;;;;;;;5101200;27;20119;-68
2021/08/06 04:18:40;;;;;;;15.73;14.32;;;;;;;;;;5114373;27;20055;-68
2021/08/06 04:21:06;;;;;;;15.68;14.02;;;;;;;;;;5112720;27;20031;-68
2021/08/06 04:23:32;;;;;;;16.35;14.70;;;;;;;;;;5109612;27;20040;-68
2021/08/06 04:25:58;;;;;;;18.25;14.00;;;;;;;;;;5084837;27;20053;-68
2021/08/06 04:28:25;;;;;;;14.98;13.60;;;;;;;;;;5114862;27;20453;-68
2021/08/06 04:30:51;;;;;;;15.18;13.65;;;;;;;;;;5108549;27;20043;-68
2021/08/06 04:33:18;;;;;;;13.57;12.27;;;;;;;;;;5108664;27;20343;-68
2021/08/06 04:35:44;;;;;;;13.77;12.48;;;;;;;;;;5112024;27;20101;-68
2021/08/06 04:38:10;;;;;;;14.43;13.13;;;;;;;;;;5110309;27;20123;-68
2021/08/06 04:40:37;;;;;;;14.15;12.85;;;;;;;;;;5114622;27;20539;-68
2021/08/06 04:43:04;;;;;;;14.60;13.10;;;;;;;;;;5106857;27;20338;-68
2021/08/06 04:45:30;;;;;;;14.75;13.25;;;;;;;;;;5113429;27;20045;-68
2021/08/06 04:48:00;;;;;;;13.13;11.75;;;;;;;;;;5107420;27;20050;-68
2021/08/06 04:50:28;;;;;;;13.75;12.23;;;;;;;;;;5113955;27;20043;-68
2021/08/06 04:52:54;;;;;;;13.55;12.25;;;;;;;;;;5104211;27;20047;-68
2021/08/06 04:55:21;;;;;;;14.00;12.13;;;;;;;;;;5117270;27;20055;-68
2021/08/06 04:57:47;;;;;;;14.02;12.63;;;;;;;;;;5108582;28;20050;-68
2021/08/06 05:00:13;;;;;;;13.65;12.20;;;;;;;;;;5110562;27;20046;-68
2021/08/06 05:02:39;;;;;;;13.23;11.85;;;;;;;;;;5105284;28;20043;-68
2021/08/06 05:05:06;;;;;;;12.50;11.27;;;;;;;;;;5118478;28;20537;-68
2021/08/06 05:07:32;;;;;;;11.57;10.43;;;;;;;;;;5104758;28;20411;-68
2021/08/06 05:09:58;;;;;;;12.52;11.25;;;;;;;;;;5112471;28;20478;-68
2021/08/06 05:12:24;;;;;;;12.18;10.73;;;;;;;;;;5110720;28;20032;-68
2021/08/06 05:14:51;;;;;;;12.18;10.98;;;;;;;;;;5116977;28;20046;-68
2021/08/06 05:17:17;;;;;;;11.43;10.43;;;;;;;;;;5113304;28;20043;-68
2021/08/06 05:19:43;;;;;;;11.63;10.52;;;;;;;;;;5104534;28;20044;-68
2021/08/06 05:22:10;;;;;;;10.85;9.85;;;;;;;;;;5116263;28;20501;-68
2021/08/06 05:24:36;;;;;;;10.90;9.80;;;;;;;;;;5109102;28;20529;-68
2021/08/06 05:27:04;;;;;;;10.57;9.27;;;;;;;;;;5113747;28;20051;-68
2021/08/06 05:29:31;;;;;;;10.43;9.48;;;;;;;;;;5102367;28;20040;-68
2021/08/06 05:31:58;;;;;;;11.35;9.52;;;;;;;;;;5118995;28;20039;-68
2021/08/06 05:34:24;;;;;;;10.35;9.43;;;;;;;;;;5105711;27;20056;-68
2021/08/06 05:36:51;;;;;;;10.68;9.35;;;;;;;;;;5117550;27;20036;-69
2021/08/06 05:39:17;;;;;;;10.23;9.20;;;;;;;;;;5108706;27;20042;-69
2021/08/06 05:41:43;;;;;;;9.45;8.52;;;;;;;;;;5120838;27;20205;-69
2021/08/06 05:44:09;;;;;;;9.57;8.68;;;;;;;;;;5112830;27;20063;-69
2021/08/06 05:46:35;;;;;;;9.52;8.63;;;;;;;;;;5117074;27;20063;-69
2021/08/06 05:49:03;;;;;;;8.45;7.75;;;;;;;;;;5112763;27;20048;-69
2021/08/06 05:51:30;;;;;;;8.57;7.65;;;;;;;;;;5116665;27;20135;-69
2021/08/06 05:53:56;;;;;;;8.52;7.68;;;;;;;;;;5109374;27;20126;-69
2021/08/06 05:56:22;;;;;;;8.55;7.80;;;;;;;;;;5110232;27;20113;-69
2021/08/06 05:58:48;;;;;;;8.73;7.78;;;;;;;;;;5122000;27;20453;-69
2021/08/06 06:01:14;;;;;;;8.50;7.70;;;;;;;;;;5098629;27;20044;-69
2021/08/06 06:03:40;;;;;;;8.55;7.60;;;;;;;;;;5110483;27;20081;-69
2021/08/06 06:06:08;;;;;;;8.25;7.32;;;;;;;;;;5110776;27;20031;-69
2021/08/06 06:08:34;;;;;;;7.85;6.88;;;;;;;;;;5122567;27;20059;-69
2021/08/06 06:11:00;;;;;;;8.70;7.22;;;;;;;;;;5107896;27;20122;-69
2021/08/06 06:13:29;;;;;;;8.13;6.95;;;;;;;;;;5111478;27;20495;-69
2021/08/06 06:15:56;;;;;;;8.85;7.63;;;;;;;;;;5113462;27;20122;-68
2021/08/06 06:18:22;;;;;;;7.35;6.63;;;;;;;;;;5120916;27;20483;-68
2021/08/06 06:20:48;;;;;;;8.13;6.82;;;;;;;;;;5106871;27;20035;-68
2021/08/06 06:23:21;;;;;;;7.15;6.00;;;;;;;;;;5117961;27;20472;-68
2021/08/06 06:25:47;;;;;;;8.48;6.82;;;;;;;;;;5111326;27;20069;-68
2021/08/06 06:28:13;;;;;;;8.32;6.75;;;;;;;;;;5111418;27;20057;-68
2021/08/06 06:30:39;;;;;;;8.07;6.93;;;;;;;;;;5105927;27;20071;-68
2021/08/06 06:33:06;;;;;;;8.52;7.00;;;;;;;;;;5118293;27;20067;-68
2021/08/06 06:35:33;;;;;;;8.27;6.65;;;;;;;;;;5115387;27;20039;-69
2021/08/06 06:37:59;;;;;;;8.50;7.47;;;;;;;;;;5112005;27;20039;-69
2021/08/06 06:40:26;;;;;;;8.25;7.47;;;;;;;;;;5098199;27;20035;-69
2021/08/06 06:42:52;;;;;;;9.35;7.13;;;;;;;;;;5107933;27;20036;-68
2021/08/06 06:45:18;;;;;;;7.40;6.53;;;;;;;;;;5116670;27;20123;-69
2021/08/06 06:47:48;;;;;;;8.55;6.80;;;;;;;;;;5107015;27;20070;-69
2021/08/06 06:50:16;;;;;;;9.73;7.28;;;;;;;;;;5116457;27;20043;-69
2021/08/06 06:52:43;;;;;;;8.07;7.28;;;;;;;;;;5109124;27;20032;-69
2021/08/06 06:55:10;;;;;;;9.90;7.10;;;;;;;;;;5115849;27;20439;-69
2021/08/06 06:57:43;;;;;;;7.68;6.70;;;;;;;;;;5106543;27;20035;-69
2021/08/06 07:00:10;;;;;;;9.90;7.47;;;;;;;;;;5111504;27;20446;-69
2021/08/06 07:02:36;;;;;;;8.70;7.10;;;;;;;;;;5114293;27;20340;-69
2021/08/06 07:05:03;;;;;;;6.68;6.07;;;;;;;;;;5110947;27;20389;-69
2021/08/06 07:07:29;;;;;;;9.32;6.97;;;;;;;;;;5110377;27;20031;-69
2021/08/06 07:09:55;;;;;;;6.68;6.00;;;;;;;;;;5115326;27;20641;-69
2021/08/06 07:12:22;;;;;;;7.75;6.38;;;;;;;;;;5108757;27;20032;-70
2021/08/06 07:14:48;;;;;;;6.47;5.88;;;;;;;;;;5111202;27;20556;-70
2021/08/06 07:17:14;;;;;;;6.88;6.18;;;;;;;;;;5106990;27;20031;-70
2021/08/06 07:19:40;;;;;;;6.50;5.60;;;;;;;;;;5117485;27;20111;-70
2021/08/06 07:22:06;;;;;;;6.75;5.95;;;;;;;;;;5113215;27;20718;-70
2021/08/06 07:24:32;;;;;;;8.50;6.63;;;;;;;;;;5104724;27;20039;-70
2021/08/06 07:26:59;;;;;;;10.23;6.80;;;;;;;;;;5112916;27;20067;-70
2021/08/06 07:29:25;;;;;;;7.03;6.25;;;;;;;;;;5114111;27;20035;-70
2021/08/06 07:31:51;;;;;;;7.00;6.30;;;;;;;;;;5111300;27;20117;-70
2021/08/06 07:34:17;;;;;;;7.78;6.97;;;;;;;;;;5078202;27;20377;-70
2021/08/06 07:36:44;;;;;;;8.43;6.88;;;;;;;;;;5116928;27;20035;-71
2021/08/06 07:39:10;;;;;;;8.07;7.28;;;;;;;;;;5106676;27;20035;-72
2021/08/06 07:41:37;;;;;;;7.55;6.85;;;;;;;;;;5100183;27;20047;-72
2021/08/06 07:44:03;;;;;;;7.95;6.68;;;;;;;;;;5105498;27;20113;-72
2021/08/06 07:46:29;;;;;;;7.55;6.68;;;;;;;;;;5119070;27;20051;-72
2021/08/06 07:48:55;;;;;;;7.88;6.22;;;;;;;;;;5107066;27;20528;-72
2021/08/06 07:51:21;;;;;;;7.65;6.88;;;;;;;;;;5113895;27;20031;-73
2021/08/06 07:53:48;;;;;;;11.63;7.82;;;;;;;;;;5110694;27;20038;-73
2021/08/06 07:56:15;;;;;;;8.48;7.57;;;;;;;;;;5113925;27;20555;-72
2021/08/06 07:58:42;;;;;;;8.45;6.43;;;;;;;;;;5109470;27;20031;-71
2021/08/06 08:01:08;;;;;;;7.70;6.82;;;;;;;;;;5104400;27;20081;-71
2021/08/06 08:03:34;;;;;;;11.07;8.20;;;;;;;;;;5115718;27;20035;-70
2021/08/06 08:06:00;;;;;;;10.07;7.82;;;;;;;;;;5108188;27;20052;-70
2021/08/06 08:08:27;;;;;;;13.18;8.88;;;;;;;;;;5111159;27;20035;-70
2021/08/06 08:10:53;;;;;;;11.68;9.10;;;;;;;;;;5076025;27;20040;-70
2021/08/06 08:13:19;;;;;;;9.95;8.70;;;;;;;;;;5118666;27;20039;-70
2021/08/06 08:15:46;;;;;;;11.75;10.15;;;;;;;;;;5107175;27;20560;-69
2021/08/06 08:18:12;;;;;;;8.23;7.32;;;;;;;;;;5108094;27;20085;-69
2021/08/06 08:20:38;;;;;;;7.97;6.93;;;;;;;;;;5106479;27;20027;-68
2021/08/06 08:23:05;;;;;;;8.02;6.90;;;;;;;;;;5115615;27;20039;-67
2021/08/06 08:25:31;;;;;;;7.85;6.25;;;;;;;;;;5103905;27;20073;-68
2021/08/06 08:27:57;;;;;;;8.48;7.55;;;;;;;;;;5109435;27;20137;-69
2021/08/06 08:30:23;;;;;;;11.38;8.90;;;;;;;;;;5108889;27;20403;-69
2021/08/06 08:32:49;;;;;;;10.35;8.80;;;;;;;;;;5116076;27;20240;-69
2021/08/06 08:35:15;;;;;;;8.05;6.78;;;;;;;;;;5109869;27;20043;-69
2021/08/06 08:37:42;;;;;;;8.35;7.55;;;;;;;;;;5109918;27;20046;-69
2021/08/06 08:40:08;;;;;;;11.07;8.35;;;;;;;;;;5116617;27;20047;-69
2021/08/06 08:42:35;;;;;;;11.00;8.82;;;;;;;;;;5105243;27;20028;-69
2021/08/06 08:45:02;;;;;;;10.80;9.27;;;;;;;;;;5106868;27;20031;-69
2021/08/06 08:47:33;;;;;;;13.48;11.07;;;;;;;;;;5110261;27;20076;-69
2021/08/06 08:50:00;;;;;;;11.50;9.88;;;;;;;;;;5098403;28;20051;-69
2021/08/06 08:52:26;;;;;;;9.35;8.40;;;;;;;;;;5106162;27;20039;-70
2021/08/06 08:54:52;;;;;;;10.57;9.57;;;;;;;;;;5111883;27;20036;-70
2021/08/06 08:57:20;;;;;;;10.45;8.00;;;;;;;;;;5108007;27;20098;-70
2021/08/06 08:59:46;;;;;;;9.20;8.25;;;;;;;;;;5086138;28;20039;-70
2021/08/06 09:02:12;;;;;;;7.47;6.70;;;;;;;;;;5101363;28;20119;-70
2021/08/06 09:04:39;;;;;;;7.88;6.10;;;;;;;;;;5114995;28;21134;-69
2021/08/06 09:07:05;;;;;;;5.40;4.78;;;;;;;;;;5092547;27;20051;-69
2021/08/06 09:09:32;;;;;;;5.75;4.68;;;;;;;;;;5112563;28;20071;-69
2021/08/06 09:12:04;;;;;;;5.20;4.60;;;;;;;;;;5105598;28;20350;-69
2021/08/06 09:14:31;;;;;;;4.82;4.00;;;;;;;;;;5113621;28;20089;-69
2021/08/06 09:17:02;;;;;;;3.95;3.45;;;;;;;;;;5110743;28;20376;-69
2021/08/06 09:19:30;;;;;;;5.80;4.43;;;;;;;;;;5111894;28;20039;-69
2021/08/06 09:22:08;;;;;;;3.80;3.40;;;;;;;;;;5108951;28;20065;-69
2021/08/06 09:24:34;;;;;;;3.35;3.05;;;;;;;;;;5113190;28;20370;-69
2021/08/06 09:27:00;;;;;;;4.32;3.92;;;;;;;;;;5095566;28;20058;-69
2021/08/06 09:29:26;;;;;;;6.38;3.10;;;;;;;;;;5104494;28;20506;-69
2021/08/06 09:31:59;;;;;;;3.45;2.03;;;;;;;;;;5113505;28;20040;-69
2021/08/06 09:34:35;;;;;;;2.50;2.30;;;;;;;;;;5111070;28;20032;-69
2021/08/06 09:37:01;;;;;;;2.83;2.17;;;;;;;;;;5112672;28;20038;-69
2021/08/06 09:39:32;;;;;;;2.00;1.85;;;;;;;;;;5105161;28;20403;-69
2021/08/06 09:41:58;;;;;;;2.17;2.08;;;;;;;;;;5108503;28;20030;-69
2021/08/06 09:44:27;;;;;;;2.85;1.75;;;;;;;;;;5107918;28;20032;-69
2021/08/06 09:46:53;;;;;;;1.90;1.70;;;;;;;;;;5114499;28;20047;-69
2021/08/06 09:49:20;;;;;;;1.67;1.58;;;;;;;;;;5101184;28;20036;-69
2021/08/06 09:51:47;;;;;;;3.33;1.90;;;;;;;;;;5112304;28;20028;-69
2021/08/06 09:54:18;;;;;;;2.20;1.40;;;;;;;;;;5107174;28;20568;-69
2021/08/06 09:56:44;;;;;;;2.17;1.55;;;;;;;;;;5112469;28;20035;-69
2021/08/06 09:59:10;;;;;;;2.83;1.42;;;;;;;;;;5103511;28;20071;-69
2021/08/06 10:01:37;;;;;;;1.90;1.35;;;;;;;;;;5116687;28;20048;-69
2021/08/06 10:04:14;;;;;;;2.20;1.27;;;;;;;;;;5103134;28;20372;-70
2021/08/06 10:06:55;;;;;;;1.95;1.40;;;;;;;;;;5110439;28;20044;-70
2021/08/06 10:09:22;;;;;;;1.73;1.20;;;;;;;;;;5106759;28;20036;-70
2021/08/06 10:11:48;;;;;;;2.13;1.35;;;;;;;;;;5095391;28;20381;-70
2021/08/06 10:14:14;;;;;;;2.13;1.67;;;;;;;;;;5110148;28;20712;-71
2021/08/06 10:16:41;;;;;;;2.25;1.65;;;;;;;;;;5081881;28;20043;-71
2021/08/06 10:19:08;;;;;;;2.42;1.33;;;;;;;;;;5106920;28;20048;-71
2021/08/06 10:21:34;;;;;;;2.80;1.45;;;;;;;;;;5115567;27;20070;-72
2021/08/06 10:24:00;;;;;;;1.70;1.25;;;;;;;;;;5118689;27;20035;-72
2021/08/06 10:26:27;;;;;;;3.17;1.75;;;;;;;;;;5111235;27;20360;-72
2021/08/06 10:28:53;;;;;;;2.95;1.67;;;;;;;;;;5116098;27;20105;-72
2021/08/06 10:31:20;;;;;;;2.60;1.73;;;;;;;;;;5114550;27;20039;-72
2021/08/06 10:34:01;;;;;;;2.70;1.58;;;;;;;;;;5113028;27;20038;-71
2021/08/06 10:36:41;;;;;;;2.30;2.10;;;;;;;;;;5109175;27;20032;-71
2021/08/06 10:39:26;;;;;;;2.55;2.35;;;;;;;;;;5109893;27;20107;-71
2021/08/06 10:41:53;;;;;;;2.55;2.22;;;;;;;;;;5112287;27;20316;-71
2021/08/06 10:44:19;;;;;;;3.13;2.40;;;;;;;;;;5085266;27;20032;-71
2021/08/06 10:46:57;;;;;;;2.40;2.20;;;;;;;;;;5114763;27;20062;-71
2021/08/06 10:49:24;;;;;;;3.78;2.40;;;;;;;;;;5115069;27;20036;-72
2021/08/06 10:52:10;;;;;;;2.65;2.33;;;;;;;;;;5111624;27;20418;-71
2021/08/06 10:54:36;;;;;;;3.08;2.40;;;;;;;;;;5094090;28;20084;-72
2021/08/06 10:57:17;;;;;;;4.65;2.90;;;;;;;;;;5109529;27;20035;-72
2021/08/06 10:59:43;;;;;;;2.83;1.80;;;;;;;;;;5111194;27;20103;-72
2021/08/06 11:02:36;;;;;;;2.90;1.67;;;;;;;;;;5111652;27;20052;-70
2021/08/06 11:05:22;;;;;;;4.32;1.58;;;;;;;;;;5115175;27;20046;-70
2021/08/06 11:07:48;;;;;;;3.33;1.33;;;;;;;;;;5089864;27;20113;-71
2021/08/06 11:10:33;;;;;;;2.72;1.80;;;;;;;;;;5110626;27;20378;-71
2021/08/06 11:13:00;;;;;;;3.65;2.00;;;;;;;;;;5103851;27;20097;-71
2021/08/06 11:15:46;;;;;;;3.50;1.52;;;;;;;;;;5120255;27;20040;-71
2021/08/06 11:18:12;;;;;;;3.00;1.95;;;;;;;;;;5115674;27;20049;-71
2021/08/06 11:20:38;;;;;;;4.40;2.10;;;;;;;;;;5109640;27;20113;-71
2021/08/06 11:23:09;;;;;;;3.20;2.15;;;;;;;;;;5105198;27;20467;-71
2021/08/06 11:25:36;;;;;;;3.80;2.10;;;;;;;;;;5117537;27;20111;-71
2021/08/06 11:28:02;;;;;;;4.00;2.13;;;;;;;;;;5076162;28;20105;-71
2021/08/06 11:30:37;;;;;;;3.47;2.00;;;;;;;;;;5107216;27;20090;-71
2021/08/06 11:33:11;;;;;;;3.75;2.38;;;;;;;;;;5102795;27;20071;-71
2021/08/06 11:35:38;;;;;;;4.20;2.40;;;;;;;;;;5120776;27;20067;-71
2021/08/06 11:38:07;;;;;;;2.63;1.95;;;;;;;;;;5087653;28;20023;-71
2021/08/06 11:40:43;;;;;;;3.47;2.53;;;;;;;;;;5111722;27;20028;-71
2021/08/06 11:43:14;;;;;;;2.55;1.77;;;;;;;;;;5102122;27;20043;-71
2021/08/06 11:45:41;;;;;;;3.15;1.83;;;;;;;;;;5117026;27;20114;-71
2021/08/06 11:48:07;;;;;;;2.88;1.70;;;;;;;;;;5107978;27;20068;-70
2021/08/06 11:50:44;;;;;;;4.40;2.28;;;;;;;;;;5113819;27;20046;-70
2021/08/06 11:53:17;;;;;;;3.47;1.90;;;;;;;;;;5101659;27;20031;-70
2021/08/06 11:55:44;;;;;;;3.15;2.30;;;;;;;;;;5117070;27;20120;-70
2021/08/06 11:58:11;;;;;;;4.25;1.88;;;;;;;;;;5104818;27;20039;-70
2021/08/06 12:00:38;;;;;;;3.53;1.63;;;;;;;;;;5113235;27;20035;-69
2021/08/06 12:03:06;;;;;;;3.13;2.00;;;;;;;;;;5111496;27;20449;-69
2021/08/06 12:05:33;;;;;;;3.80;1.88;;;;;;;;;;5116333;27;20047;-69
2021/08/06 12:08:12;;;;;;;2.55;1.55;;;;;;;;;;5108308;27;20110;-69
2021/08/06 12:10:38;;;;;;;3.75;1.60;;;;;;;;;;5109480;27;20066;-69
2021/08/06 12:13:09;;;;;;;3.88;2.08;;;;;;;;;;5113065;27;20471;-69
2021/08/06 12:15:35;;;;;;;2.50;1.70;;;;;;;;;;5111742;27;20118;-69
2021/08/06 12:18:11;;;;;;;4.10;1.80;;;;;;;;;;5106760;27;20089;-69
2021/08/06 12:20:38;;;;;;;6.70;2.53;;;;;;;;;;5098384;27;20039;-69
2021/08/06 12:23:05;;;;;;;4.90;3.50;;;;;;;;;;5116763;27;20040;-71
2021/08/06 12:25:32;;;;;;;5.80;4.47;;;;;;;;;;5109643;27;20038;-72
2021/08/06 12:27:59;;;;;;;4.05;3.53;;;;;;;;;;5092207;28;20059;-71
2021/08/06 12:30:26;;;;;;;4.30;3.50;;;;;;;;;;5104080;27;20123;-71
2021/08/06 12:32:53;;;;;;;4.43;2.90;;;;;;;;;;5119829;27;20043;-71
2021/08/06 12:35:20;;;;;;;5.97;3.65;;;;;;;;;;5078528;27;20035;-71
2021/08/06 12:37:46;;;;;;;4.43;3.42;;;;;;;;;;5111244;27;20035;-71
2021/08/06 12:40:43;;;;;;;4.30;3.40;;;;;;;;;;5088343;27;20105;-71
2021/08/06 12:43:20;;;;;;;4.35;3.13;;;;;;;;;;5112924;27;20575;-71
2021/08/06 12:45:46;;;;;;;5.50;3.90;;;;;;;;;;5108615;27;20031;-71
2021/08/06 12:48:12;;;;;;;4.63;3.90;;;;;;;;;;5084171;28;20056;-71
2021/08/06 12:50:38;;;;;;;5.60;3.35;;;;;;;;;;5104293;27;20465;-71
2021/08/06 12:53:06;;;;;;;4.43;3.10;;;;;;;;;;5116214;27;20032;-71
2021/08/06 12:55:33;;;;;;;5.50;3.15;;;;;;;;;;5108449;27;20039;-71
2021/08/06 12:58:00;;;;;;;2.95;2.30;;;;;;;;;;5110918;28;20031;-71
2021/08/06 13:00:33;;;;;;;3.60;1.80;;;;;;;;;;5088705;28;20126;-71
2021/08/06 13:03:08;;;;;;;3.90;1.90;;;;;;;;;;5110630;27;20104;-71
2021/08/06 13:05:36;;;;;;;4.93;2.00;;;;;;;;;;5110027;28;20428;-71
2021/08/06 13:08:13;;;;;;;3.45;1.67;;;;;;;;;;5104096;28;20478;-71
2021/08/06 13:10:39;;;;;;;2.42;1.45;;;;;;;;;;5091042;28;20411;-71
2021/08/06 13:13:05;;;;;;;3.70;1.70;;;;;;;;;;5107788;28;20042;-71
2021/08/06 13:15:32;;;;;;;2.05;1.60;;;;;;;;;;5115250;28;20334;-71
2021/08/06 13:17:58;;;;;;;2.40;1.25;;;;;;;;;;5088387;28;20158;-71
2021/08/06 13:20:24;;;;;;;2.28;1.13;;;;;;;;;;5098255;28;20024;-72
2021/08/06 13:22:50;;;;;;;3.50;1.58;;;;;;;;;;5104963;28;20040;-72
2021/08/06 13:25:19;;;;;;;4.07;1.60;;;;;;;;;;5110905;28;20042;-72
2021/08/06 13:27:45;;;;;;;3.10;1.25;;;;;;;;;;5105483;28;20135;-72
2021/08/06 13:30:12;;;;;;;2.20;1.17;;;;;;;;;;5117091;28;20039;-72
2021/08/06 13:32:39;;;;;;;2.72;1.10;;;;;;;;;;5108658;28;20110;-71
2021/08/06 13:35:05;;;;;;;3.33;1.17;;;;;;;;;;5105612;28;20033;-71
2021/08/06 13:37:32;;;;;;;1.10;1.00;;;;;;;;;;5103952;28;20045;-71
2021/08/06 13:39:58;;;;;;;3.30;1.45;;;;;;;;;;5119654;28;20506;-71
2021/08/06 13:42:24;;;;;;;2.67;1.60;;;;;;;;;;5107583;28;20032;-71
2021/08/06 13:44:51;;;;;;;2.28;1.70;;;;;;;;;;5109462;28;20688;-71
2021/08/06 13:47:17;;;;;;;3.95;1.60;;;;;;;;;;5109606;28;20043;-71
2021/08/06 13:49:43;;;;;;;2.47;1.77;;;;;;;;;;5113537;28;20046;-71
2021/08/06 13:52:09;;;;;;;2.72;1.63;;;;;;;;;;5107893;28;20044;-71
2021/08/06 13:54:35;;;;;;;3.50;1.67;;;;;;;;;;5108071;27;20067;-70
2021/08/06 13:57:01;;;;;;;2.45;1.00;;;;;;;;;;5122606;27;20036;-70
2021/08/06 13:59:27;;;;;;;2.35;0.80;;;;;;;;;;5097757;27;20100;-70
2021/08/06 14:01:54;;;;;;;13.73;2.08;;;;;;;;;;5117125;27;20490;-75
2021/08/06 14:04:20;;;;;;;2.00;1.17;;;;;;;;;;5111801;27;20560;-74
2021/08/06 14:06:46;;;;;;;3.72;1.30;;;;;;;;;;5115945;27;20065;-74
2021/08/06 14:09:12;;;;;;;1.30;1.17;;;;;;;;;;5111597;27;20039;-75
2021/08/06 14:11:39;;;;;;;2.38;1.95;;;;;;;;;;5118168;27;20368;-74
2021/08/06 14:14:05;;;;;;;2.67;1.85;;;;;;;;;;5112908;27;20032;-74
2021/08/06 14:16:33;;;;;;;1.95;1.75;;;;;;;;;;5116544;27;20403;-73
2021/08/06 14:18:59;;;;;;;3.08;1.90;;;;;;;;;;5105932;27;20036;-73
2021/08/06 14:21:25;;;;;;;1.77;1.52;;;;;;;;;;5087507;27;20028;-73
2021/08/06 14:23:51;;;;;;;2.70;2.33;;;;;;;;;;5111631;27;20499;-73
2021/08/06 14:26:17;;;;;;;3.85;2.25;;;;;;;;;;5114439;27;20055;-73
2021/08/06 14:28:44;;;;;;;2.67;2.08;;;;;;;;;;5115607;27;20471;-73
2021/08/06 14:31:10;;;;;;;3.53;2.40;;;;;;;;;;5082664;28;20046;-73
2021/08/06 14:33:44;;;;;;;2.67;2.47;;;;;;;;;;5103414;27;20495;-73
2021/08/06 14:36:11;;;;;;;2.63;2.40;;;;;;;;;;5108484;27;20122;-73